sensor_id;sensor_type;location;lat;lon;timestamp;pressure;altitude;pressure_sealevel;temperature;humidity
19236;BME280;9752;54.270;12.470;2022-09-12T00:02:17;101849.56;;;10.23;100.00
19236;BME280;9752;54.270;12.470;2022-09-12T00:07:20;101850.59;;;10.25;100.00
19236;BME280;9752;54.270;12.470;2022-09-12T00:12:22;101855.34;;;10.08;100.00
19236;BME280;9752;54.270;12.470;2022-09-12T00:17:24;101849.38;;;10.09;100.00
19236;BME280;9752;54.270;12.470;2022-09-12T00:22:27;101857.69;;;10.05;100.00
19236;BME280;9752;54.270;12.470;2022-09-12T00:27:28;101857.75;;;9.95;100.00
19236;BME280;9752;54.270;12.470;2022-09-12T00:32:30;101855.31;;;9.86;100.00
19236;BME280;9752;54.270;12.470;2022-09-12T00:37:34;101843.03;;;9.84;100.00
19236;BME280;9752;54.270;12.470;2022-09-12T00:42:36;101845.56;;;9.94;100.00
19236;BME280;9752;54.270;12.470;2022-09-12T00:47:37;101852.75;;;10.08;100.00
19236;BME280;9752;54.270;12.470;2022-09-12T00:52:43;101854.47;;;9.97;100.00
19236;BME280;9752;54.270;12.470;2022-09-12T00:57:49;101849.69;;;10.02;100.00
19236;BME280;9752;54.270;12.470;2022-09-12T01:02:56;101865.97;;;10.11;100.00
19236;BME280;9752;54.270;12.470;2022-09-12T01:08:01;101869.97;;;10.40;100.00
19236;BME280;9752;54.270;12.470;2022-09-12T01:13:05;101883.16;;;10.65;100.00
19236;BME280;9752;54.270;12.470;2022-09-12T01:18:14;101884.44;;;10.82;100.00
19236;BME280;9752;54.270;12.470;2022-09-12T01:23:40;101886.56;;;10.42;100.00
19236;BME280;9752;54.270;12.470;2022-09-12T01:29:02;101882.47;;;10.24;100.00
19236;BME280;9752;54.270;12.470;2022-09-12T01:34:17;101876.88;;;10.07;100.00
19236;BME280;9752;54.270;12.470;2022-09-12T01:39:27;101872.94;;;9.90;100.00
19236;BME280;9752;54.270;12.470;2022-09-12T01:44:35;101869.34;;;9.78;100.00
19236;BME280;9752;54.270;12.470;2022-09-12T01:49:44;101869.41;;;9.57;100.00
19236;BME280;9752;54.270;12.470;2022-09-12T01:54:50;101860.78;;;9.47;100.00
19236;BME280;9752;54.270;12.470;2022-09-12T01:59:58;101871.31;;;9.70;100.00
19236;BME280;9752;54.270;12.470;2022-09-12T02:05:08;101878.41;;;9.83;100.00
19236;BME280;9752;54.270;12.470;2022-09-12T02:10:12;101895.94;;;9.75;100.00
19236;BME280;9752;54.270;12.470;2022-09-12T02:15:18;101888.91;;;9.74;100.00
19236;BME280;9752;54.270;12.470;2022-09-12T02:20:24;101902.00;;;9.76;100.00
19236;BME280;9752;54.270;12.470;2022-09-12T02:25:28;101901.88;;;9.74;100.00
19236;BME280;9752;54.270;12.470;2022-09-12T02:30:36;101891.56;;;9.64;100.00
19236;BME280;9752;54.270;12.470;2022-09-12T02:35:45;101897.53;;;9.53;100.00
19236;BME280;9752;54.270;12.470;2022-09-12T02:40:49;101894.16;;;9.54;100.00
19236;BME280;9752;54.270;12.470;2022-09-12T02:45:52;101891.09;;;9.37;100.00
19236;BME280;9752;54.270;12.470;2022-09-12T02:50:55;101900.56;;;9.27;100.00
19236;BME280;9752;54.270;12.470;2022-09-12T02:55:56;101899.63;;;9.36;100.00
19236;BME280;9752;54.270;12.470;2022-09-12T03:01:02;101910.72;;;9.56;100.00
19236;BME280;9752;54.270;12.470;2022-09-12T03:06:15;101916.88;;;9.78;100.00
19236;BME280;9752;54.270;12.470;2022-09-12T03:11:52;101905.84;;;9.91;100.00
19236;BME280;9752;54.270;12.470;2022-09-12T03:17:06;101993.81;;;9.90;100.00
19236;BME280;9752;54.270;12.470;2022-09-12T03:22:18;101888.97;;;9.64;100.00
19236;BME280;9752;54.270;12.470;2022-09-12T03:27:26;101889.66;;;9.51;100.00
19236;BME280;9752;54.270;12.470;2022-09-12T03:32:41;101885.22;;;9.50;100.00
19236;BME280;9752;54.270;12.470;2022-09-12T03:37:45;101885.13;;;9.49;100.00
19236;BME280;9752;54.270;12.470;2022-09-12T03:42:47;101878.16;;;9.37;100.00
19236;BME280;9752;54.270;12.470;2022-09-12T03:47:49;101892.13;;;9.29;100.00
19236;BME280;9752;54.270;12.470;2022-09-12T03:52:52;101890.47;;;9.19;100.00
19236;BME280;9752;54.270;12.470;2022-09-12T03:57:54;101903.41;;;9.19;100.00
19236;BME280;9752;54.270;12.470;2022-09-12T04:02:56;101898.41;;;9.11;100.00
19236;BME280;9752;54.270;12.470;2022-09-12T04:07:59;101900.22;;;9.02;100.00
19236;BME280;9752;54.270;12.470;2022-09-12T04:13:01;101907.47;;;8.95;100.00
19236;BME280;9752;54.270;12.470;2022-09-12T04:18:03;101902.03;;;8.82;100.00
19236;BME280;9752;54.270;12.470;2022-09-12T04:23:06;101898.91;;;8.66;100.00
19236;BME280;9752;54.270;12.470;2022-09-12T04:28:07;101908.06;;;8.62;100.00
19236;BME280;9752;54.270;12.470;2022-09-12T04:33:09;101919.44;;;8.54;100.00
19236;BME280;9752;54.270;12.470;2022-09-12T04:38:12;101920.22;;;8.53;100.00
19236;BME280;9752;54.270;12.470;2022-09-12T04:43:14;101923.44;;;8.60;100.00
19236;BME280;9752;54.270;12.470;2022-09-12T04:48:16;101932.16;;;8.71;100.00
19236;BME280;9752;54.270;12.470;2022-09-12T04:53:19;101938.25;;;8.92;100.00
19236;BME280;9752;54.270;12.470;2022-09-12T04:58:21;101936.06;;;9.07;100.00
19236;BME280;9752;54.270;12.470;2022-09-12T05:03:23;101942.34;;;9.31;100.00
19236;BME280;9752;54.270;12.470;2022-09-12T05:08:26;101938.50;;;9.47;100.00
19236;BME280;9752;54.270;12.470;2022-09-12T05:13:27;101945.44;;;9.68;100.00
19236;BME280;9752;54.270;12.470;2022-09-12T05:18:30;101947.34;;;9.81;100.00
19236;BME280;9752;54.270;12.470;2022-09-12T05:23:34;101945.38;;;9.89;100.00
19236;BME280;9752;54.270;12.470;2022-09-12T05:28:38;101959.94;;;10.09;100.00
19236;BME280;9752;54.270;12.470;2022-09-12T05:33:41;101959.47;;;10.35;100.00
19236;BME280;9752;54.270;12.470;2022-09-12T05:38:45;101957.97;;;10.71;100.00
19236;BME280;9752;54.270;12.470;2022-09-12T05:43:51;101958.06;;;10.94;100.00
19236;BME280;9752;54.270;12.470;2022-09-12T05:48:54;101962.78;;;11.22;100.00
19236;BME280;9752;54.270;12.470;2022-09-12T05:53:59;101970.41;;;11.66;100.00
19236;BME280;9752;54.270;12.470;2022-09-12T05:59:04;101977.00;;;11.97;100.00
19236;BME280;9752;54.270;12.470;2022-09-12T06:04:07;101979.28;;;12.27;100.00
19236;BME280;9752;54.270;12.470;2022-09-12T06:09:10;101967.75;;;12.24;100.00
19236;BME280;9752;54.270;12.470;2022-09-12T06:14:14;101968.03;;;12.40;100.00
19236;BME280;9752;54.270;12.470;2022-09-12T06:19:18;101966.66;;;12.45;100.00
19236;BME280;9752;54.270;12.470;2022-09-12T06:24:21;101957.72;;;12.42;100.00
19236;BME280;9752;54.270;12.470;2022-09-12T06:29:23;102051.03;;;12.61;100.00
19236;BME280;9752;54.270;12.470;2022-09-12T06:34:25;101975.84;;;13.02;100.00
19236;BME280;9752;54.270;12.470;2022-09-12T06:39:28;101967.69;;;13.48;100.00
19236;BME280;9752;54.270;12.470;2022-09-12T06:44:30;101919.16;;;13.90;100.00
19236;BME280;9752;54.270;12.470;2022-09-12T06:49:32;101913.09;;;14.31;100.00
19236;BME280;9752;54.270;12.470;2022-09-12T06:54:36;101915.25;;;14.52;100.00
19236;BME280;9752;54.270;12.470;2022-09-12T06:59:37;101871.50;;;14.91;100.00
19236;BME280;9752;54.270;12.470;2022-09-12T07:04:39;101855.25;;;15.56;100.00
19236;BME280;9752;54.270;12.470;2022-09-12T07:09:42;101902.47;;;15.89;100.00
19236;BME280;9752;54.270;12.470;2022-09-12T07:14:44;101857.72;;;16.15;100.00
19236;BME280;9752;54.270;12.470;2022-09-12T07:19:45;101862.97;;;16.32;100.00
19236;BME280;9752;54.270;12.470;2022-09-12T07:24:48;101855.56;;;15.92;100.00
19236;BME280;9752;54.270;12.470;2022-09-12T07:29:50;101846.44;;;15.39;100.00
19236;BME280;9752;54.270;12.470;2022-09-12T07:34:52;101830.69;;;15.37;100.00
19236;BME280;9752;54.270;12.470;2022-09-12T07:39:55;101818.00;;;14.99;100.00
19236;BME280;9752;54.270;12.470;2022-09-12T07:44:57;101798.69;;;15.73;100.00
19236;BME280;9752;54.270;12.470;2022-09-12T07:49:58;101803.16;;;16.23;100.00
19236;BME280;9752;54.270;12.470;2022-09-12T07:55:02;101805.97;;;17.11;100.00
19236;BME280;9752;54.270;12.470;2022-09-12T08:00:05;101839.53;;;17.18;100.00
19236;BME280;9752;54.270;12.470;2022-09-12T08:05:12;101783.13;;;16.07;100.00
19236;BME280;9752;54.270;12.470;2022-09-12T08:10:16;101768.94;;;16.20;100.00
19236;BME280;9752;54.270;12.470;2022-09-12T08:15:17;101775.16;;;16.38;100.00
19236;BME280;9752;54.270;12.470;2022-09-12T08:20:20;101778.38;;;16.67;100.00
19236;BME280;9752;54.270;12.470;2022-09-12T08:25:23;101765.56;;;16.55;100.00
19236;BME280;9752;54.270;12.470;2022-09-12T08:30:25;101775.59;;;16.13;100.00
19236;BME280;9752;54.270;12.470;2022-09-12T08:35:27;101775.03;;;16.35;100.00
19236;BME280;9752;54.270;12.470;2022-09-12T08:40:32;101779.28;;;16.84;100.00
19236;BME280;9752;54.270;12.470;2022-09-12T08:45:46;101772.78;;;17.30;100.00
19236;BME280;9752;54.270;12.470;2022-09-12T08:50:52;101777.16;;;17.11;100.00
19236;BME280;9752;54.270;12.470;2022-09-12T08:55:57;101766.56;;;17.83;100.00
19236;BME280;9752;54.270;12.470;2022-09-12T09:01:04;101760.53;;;18.23;100.00
19236;BME280;9752;54.270;12.470;2022-09-12T09:06:14;101752.31;;;19.19;100.00
19236;BME280;9752;54.270;12.470;2022-09-12T09:11:33;101765.19;;;18.90;100.00
19236;BME280;9752;54.270;12.470;2022-09-12T09:16:41;101759.53;;;18.41;100.00
19236;BME280;9752;54.270;12.470;2022-09-12T09:21:50;101753.09;;;18.53;100.00
19236;BME280;9752;54.270;12.470;2022-09-12T09:26:57;101753.31;;;18.39;100.00
19236;BME280;9752;54.270;12.470;2022-09-12T09:32:03;101748.47;;;18.28;100.00
19236;BME280;9752;54.270;12.470;2022-09-12T09:37:15;101746.66;;;18.47;100.00
19236;BME280;9752;54.270;12.470;2022-09-12T09:42:27;101744.47;;;18.37;100.00
19236;BME280;9752;54.270;12.470;2022-09-12T09:47:32;101738.16;;;18.73;100.00
19236;BME280;9752;54.270;12.470;2022-09-12T09:52:35;101735.72;;;19.20;100.00
19236;BME280;9752;54.270;12.470;2022-09-12T09:57:43;101733.63;;;19.57;100.00
19236;BME280;9752;54.270;12.470;2022-09-12T10:02:58;101736.13;;;19.54;100.00
19236;BME280;9752;54.270;12.470;2022-09-12T10:08:01;101730.25;;;20.06;100.00
19236;BME280;9752;54.270;12.470;2022-09-12T10:13:21;101727.31;;;20.22;100.00
19236;BME280;9752;54.270;12.470;2022-09-12T10:18:38;101728.81;;;19.69;100.00
19236;BME280;9752;54.270;12.470;2022-09-12T10:23:41;101718.50;;;18.85;100.00
19236;BME280;9752;54.270;12.470;2022-09-12T10:28:47;101706.50;;;18.70;100.00
19236;BME280;9752;54.270;12.470;2022-09-12T10:33:50;101709.16;;;18.91;100.00
19236;BME280;9752;54.270;12.470;2022-09-12T10:38:56;101700.56;;;18.96;100.00
19236;BME280;9752;54.270;12.470;2022-09-12T10:44:06;101701.94;;;19.08;100.00
19236;BME280;9752;54.270;12.470;2022-09-12T10:49:19;101695.91;;;19.56;100.00
19236;BME280;9752;54.270;12.470;2022-09-12T10:54:24;101695.66;;;19.97;100.00
19236;BME280;9752;54.270;12.470;2022-09-12T10:59:37;101702.56;;;19.46;100.00
19236;BME280;9752;54.270;12.470;2022-09-12T11:04:53;101692.47;;;19.59;100.00
19236;BME280;9752;54.270;12.470;2022-09-12T11:10:03;101689.78;;;19.12;100.00
19236;BME280;9752;54.270;12.470;2022-09-12T11:20:57;101691.41;;;18.86;100.00
19236;BME280;9752;54.270;12.470;2022-09-12T11:26:10;101690.75;;;19.37;100.00
19236;BME280;9752;54.270;12.470;2022-09-12T11:31:37;101695.78;;;19.53;100.00
19236;BME280;9752;54.270;12.470;2022-09-12T11:36:56;101694.16;;;19.79;100.00
19236;BME280;9752;54.270;12.470;2022-09-12T11:42:04;101690.66;;;20.28;100.00
19236;BME280;9752;54.270;12.470;2022-09-12T11:47:12;101687.53;;;19.21;100.00
19236;BME280;9752;54.270;12.470;2022-09-12T11:52:16;101682.84;;;19.14;100.00
19236;BME280;9752;54.270;12.470;2022-09-12T11:57:25;101696.13;;;19.17;100.00
19236;BME280;9752;54.270;12.470;2022-09-12T12:02:34;101700.31;;;18.28;100.00
19236;BME280;9752;54.270;12.470;2022-09-12T12:07:41;101695.72;;;18.43;100.00
19236;BME280;9752;54.270;12.470;2022-09-12T12:12:43;101692.38;;;18.26;100.00
19236;BME280;9752;54.270;12.470;2022-09-12T12:17:59;101689.19;;;17.93;100.00
19236;BME280;9752;54.270;12.470;2022-09-12T12:23:02;101695.41;;;18.36;100.00
19236;BME280;9752;54.270;12.470;2022-09-12T12:28:04;101694.59;;;18.17;100.00
19236;BME280;9752;54.270;12.470;2022-09-12T12:38:51;101687.50;;;18.14;100.00
19236;BME280;9752;54.270;12.470;2022-09-12T12:43:53;101673.94;;;18.46;100.00
19236;BME280;9752;54.270;12.470;2022-09-12T12:49:19;101669.59;;;18.06;100.00
19236;BME280;9752;54.270;12.470;2022-09-12T12:54:32;101673.25;;;18.29;100.00
19236;BME280;9752;54.270;12.470;2022-09-12T12:59:34;101667.69;;;18.23;100.00
19236;BME280;9752;54.270;12.470;2022-09-12T13:04:43;101653.28;;;18.55;100.00
19236;BME280;9752;54.270;12.470;2022-09-12T13:09:47;101653.34;;;18.78;100.00
19236;BME280;9752;54.270;12.470;2022-09-12T13:14:53;101651.34;;;18.72;100.00
19236;BME280;9752;54.270;12.470;2022-09-12T13:20:17;101645.13;;;18.91;100.00
19236;BME280;9752;54.270;12.470;2022-09-12T13:25:28;101642.81;;;18.99;100.00
19236;BME280;9752;54.270;12.470;2022-09-12T13:30:32;101638.56;;;19.02;100.00
19236;BME280;9752;54.270;12.470;2022-09-12T13:35:41;101636.94;;;18.83;100.00
19236;BME280;9752;54.270;12.470;2022-09-12T13:40:57;101639.88;;;18.70;100.00
19236;BME280;9752;54.270;12.470;2022-09-12T13:46:05;101639.53;;;18.40;100.00
19236;BME280;9752;54.270;12.470;2022-09-12T13:51:20;101629.16;;;18.43;100.00
19236;BME280;9752;54.270;12.470;2022-09-12T13:56:23;101627.47;;;18.66;100.00
19236;BME280;9752;54.270;12.470;2022-09-12T14:01:37;101624.91;;;18.88;100.00
19236;BME280;9752;54.270;12.470;2022-09-12T14:06:44;101621.69;;;18.75;100.00
19236;BME280;9752;54.270;12.470;2022-09-12T14:11:49;101619.25;;;18.79;100.00
19236;BME280;9752;54.270;12.470;2022-09-12T14:16:52;101609.34;;;18.95;100.00
19236;BME280;9752;54.270;12.470;2022-09-12T14:21:56;101607.41;;;18.68;100.00
19236;BME280;9752;54.270;12.470;2022-09-12T14:26:58;101604.03;;;18.70;100.00
19236;BME280;9752;54.270;12.470;2022-09-12T14:32:01;101594.47;;;18.72;100.00
19236;BME280;9752;54.270;12.470;2022-09-12T14:37:06;101584.28;;;18.80;100.00
19236;BME280;9752;54.270;12.470;2022-09-12T14:42:12;101592.63;;;18.28;100.00
19236;BME280;9752;54.270;12.470;2022-09-12T14:47:22;101589.84;;;18.23;100.00
19236;BME280;9752;54.270;12.470;2022-09-12T14:52:28;101580.19;;;18.45;100.00
19236;BME280;9752;54.270;12.470;2022-09-12T14:57:36;101578.66;;;18.50;100.00
19236;BME280;9752;54.270;12.470;2022-09-12T15:02:40;101565.59;;;18.30;100.00
19236;BME280;9752;54.270;12.470;2022-09-12T15:07:50;101561.91;;;18.25;100.00
19236;BME280;9752;54.270;12.470;2022-09-12T15:13:09;101565.22;;;18.42;100.00
19236;BME280;9752;54.270;12.470;2022-09-12T15:18:13;101552.56;;;18.54;100.00
19236;BME280;9752;54.270;12.470;2022-09-12T15:23:22;101543.56;;;18.70;100.00
19236;BME280;9752;54.270;12.470;2022-09-12T15:28:29;101547.97;;;18.49;100.00
19236;BME280;9752;54.270;12.470;2022-09-12T15:33:31;101550.56;;;18.26;100.00
19236;BME280;9752;54.270;12.470;2022-09-12T15:38:34;101546.00;;;18.22;100.00
19236;BME280;9752;54.270;12.470;2022-09-12T15:43:36;101534.72;;;18.02;100.00
19236;BME280;9752;54.270;12.470;2022-09-12T15:48:37;101538.53;;;18.54;100.00
19236;BME280;9752;54.270;12.470;2022-09-12T15:53:41;101531.19;;;18.68;100.00
19236;BME280;9752;54.270;12.470;2022-09-12T15:58:43;101533.03;;;19.89;100.00
19236;BME280;9752;54.270;12.470;2022-09-12T16:03:45;101521.00;;;20.52;100.00
19236;BME280;9752;54.270;12.470;2022-09-12T16:08:48;101522.13;;;20.04;100.00
19236;BME280;9752;54.270;12.470;2022-09-12T16:13:51;101524.66;;;19.26;100.00
19236;BME280;9752;54.270;12.470;2022-09-12T16:18:53;101525.81;;;18.87;100.00
19236;BME280;9752;54.270;12.470;2022-09-12T16:23:56;101512.44;;;18.59;100.00
19236;BME280;9752;54.270;12.470;2022-09-12T16:28:58;101509.91;;;17.95;100.00
19236;BME280;9752;54.270;12.470;2022-09-12T16:34:00;101504.69;;;17.76;100.00
19236;BME280;9752;54.270;12.470;2022-09-12T16:39:03;101514.84;;;17.47;100.00
19236;BME280;9752;54.270;12.470;2022-09-12T16:44:05;101507.75;;;17.25;100.00
19236;BME280;9752;54.270;12.470;2022-09-12T16:49:09;101510.16;;;17.01;100.00
19236;BME280;9752;54.270;12.470;2022-09-12T16:54:12;101500.16;;;16.74;100.00
19236;BME280;9752;54.270;12.470;2022-09-12T16:59:15;101489.75;;;16.38;100.00
19236;BME280;9752;54.270;12.470;2022-09-12T17:04:16;101479.84;;;16.13;100.00
19236;BME280;9752;54.270;12.470;2022-09-12T17:09:20;101476.91;;;15.89;100.00
19236;BME280;9752;54.270;12.470;2022-09-12T17:14:22;101476.88;;;15.71;100.00
19236;BME280;9752;54.270;12.470;2022-09-12T17:19:25;101468.47;;;15.60;100.00
19236;BME280;9752;54.270;12.470;2022-09-12T17:24:30;101460.03;;;15.48;100.00
19236;BME280;9752;54.270;12.470;2022-09-12T17:29:32;101464.59;;;15.36;100.00
19236;BME280;9752;54.270;12.470;2022-09-12T17:34:36;101457.53;;;15.17;100.00
19236;BME280;9752;54.270;12.470;2022-09-12T17:39:39;101462.72;;;14.99;100.00
19236;BME280;9752;54.270;12.470;2022-09-12T17:44:41;101453.03;;;14.81;100.00
19236;BME280;9752;54.270;12.470;2022-09-12T17:49:42;101451.91;;;14.60;100.00
19236;BME280;9752;54.270;12.470;2022-09-12T17:54:45;101452.94;;;14.32;100.00
19236;BME280;9752;54.270;12.470;2022-09-12T17:59:47;101454.81;;;14.03;100.00
19236;BME280;9752;54.270;12.470;2022-09-12T18:04:49;101456.47;;;13.86;100.00
19236;BME280;9752;54.270;12.470;2022-09-12T18:09:52;101456.03;;;13.79;100.00
19236;BME280;9752;54.270;12.470;2022-09-12T18:14:54;101450.81;;;13.79;100.00
19236;BME280;9752;54.270;12.470;2022-09-12T18:19:56;101451.91;;;13.82;100.00
19236;BME280;9752;54.270;12.470;2022-09-12T18:24:59;101452.09;;;13.85;100.00
19236;BME280;9752;54.270;12.470;2022-09-12T18:30:00;101443.63;;;13.90;100.00
19236;BME280;9752;54.270;12.470;2022-09-12T18:35:02;101428.88;;;13.90;100.00
19236;BME280;9752;54.270;12.470;2022-09-12T18:40:07;101423.66;;;13.90;100.00
19236;BME280;9752;54.270;12.470;2022-09-12T18:45:09;101415.41;;;13.82;100.00
19236;BME280;9752;54.270;12.470;2022-09-12T18:50:11;101415.06;;;13.76;100.00
19236;BME280;9752;54.270;12.470;2022-09-12T18:55:14;101408.94;;;13.76;100.00
19236;BME280;9752;54.270;12.470;2022-09-12T19:00:16;101404.88;;;13.81;100.00
19236;BME280;9752;54.270;12.470;2022-09-12T19:05:18;101405.16;;;13.85;100.00
19236;BME280;9752;54.270;12.470;2022-09-12T19:10:22;101397.84;;;13.95;100.00
19236;BME280;9752;54.270;12.470;2022-09-12T19:15:24;101387.66;;;13.99;100.00
19236;BME280;9752;54.270;12.470;2022-09-12T19:20:25;101375.63;;;13.86;100.00
19236;BME280;9752;54.270;12.470;2022-09-12T19:25:28;101375.84;;;13.75;100.00
19236;BME280;9752;54.270;12.470;2022-09-12T19:30:30;101366.91;;;13.55;100.00
19236;BME280;9752;54.270;12.470;2022-09-12T19:35:32;101361.53;;;13.37;100.00
19236;BME280;9752;54.270;12.470;2022-09-12T19:40:35;101347.31;;;13.17;100.00
19236;BME280;9752;54.270;12.470;2022-09-12T19:45:45;101344.88;;;13.05;100.00
19236;BME280;9752;54.270;12.470;2022-09-12T19:50:48;101335.72;;;12.97;100.00
19236;BME280;9752;54.270;12.470;2022-09-12T19:55:51;101321.06;;;12.84;100.00
19236;BME280;9752;54.270;12.470;2022-09-12T20:01:07;101321.97;;;12.69;100.00
19236;BME280;9752;54.270;12.470;2022-09-12T20:06:10;101326.72;;;12.62;100.00
19236;BME280;9752;54.270;12.470;2022-09-12T20:11:16;101319.69;;;12.61;100.00
19236;BME280;9752;54.270;12.470;2022-09-12T20:16:20;101321.88;;;12.68;100.00
19236;BME280;9752;54.270;12.470;2022-09-12T20:21:24;101307.50;;;12.75;100.00
19236;BME280;9752;54.270;12.470;2022-09-12T20:26:32;101315.31;;;12.89;100.00
19236;BME280;9752;54.270;12.470;2022-09-12T20:31:36;101302.41;;;13.06;100.00
19236;BME280;9752;54.270;12.470;2022-09-12T20:36:38;101307.28;;;13.15;100.00
19236;BME280;9752;54.270;12.470;2022-09-12T20:41:41;101312.00;;;13.22;100.00
19236;BME280;9752;54.270;12.470;2022-09-12T20:46:43;101311.28;;;13.24;100.00
19236;BME280;9752;54.270;12.470;2022-09-12T20:51:44;101298.41;;;13.27;100.00
19236;BME280;9752;54.270;12.470;2022-09-12T20:56:48;101287.69;;;13.36;100.00
19236;BME280;9752;54.270;12.470;2022-09-12T21:01:50;101281.91;;;13.42;100.00
19236;BME280;9752;54.270;12.470;2022-09-12T21:06:52;101270.75;;;13.44;100.00
19236;BME280;9752;54.270;12.470;2022-09-12T21:11:55;101274.28;;;13.45;100.00
19236;BME280;9752;54.270;12.470;2022-09-12T21:16:57;101265.72;;;13.47;100.00
19236;BME280;9752;54.270;12.470;2022-09-12T21:21:58;101259.13;;;13.54;100.00
19236;BME280;9752;54.270;12.470;2022-09-12T21:27:01;101253.78;;;13.67;100.00
19236;BME280;9752;54.270;12.470;2022-09-12T21:32:03;101245.25;;;13.70;100.00
19236;BME280;9752;54.270;12.470;2022-09-12T21:37:05;101236.78;;;13.74;100.00
19236;BME280;9752;54.270;12.470;2022-09-12T21:42:08;101232.72;;;13.79;100.00
19236;BME280;9752;54.270;12.470;2022-09-12T21:47:10;101228.41;;;13.80;100.00
19236;BME280;9752;54.270;12.470;2022-09-12T21:52:12;101209.56;;;13.85;100.00
19236;BME280;9752;54.270;12.470;2022-09-12T21:57:15;101208.03;;;13.89;100.00
19236;BME280;9752;54.270;12.470;2022-09-12T22:02:17;101200.03;;;14.02;100.00
19236;BME280;9752;54.270;12.470;2022-09-12T22:07:19;101190.31;;;14.00;100.00
19236;BME280;9752;54.270;12.470;2022-09-12T22:12:23;101185.84;;;13.97;100.00
19236;BME280;9752;54.270;12.470;2022-09-12T22:17:26;101172.81;;;13.97;100.00
19236;BME280;9752;54.270;12.470;2022-09-12T22:22:29;101175.72;;;14.03;100.00
19236;BME280;9752;54.270;12.470;2022-09-12T22:27:49;101165.97;;;13.99;100.00
19236;BME280;9752;54.270;12.470;2022-09-12T22:32:51;101150.41;;;14.01;100.00
19236;BME280;9752;54.270;12.470;2022-09-12T22:37:53;101144.59;;;14.06;100.00
19236;BME280;9752;54.270;12.470;2022-09-12T22:42:56;101136.78;;;14.06;100.00
19236;BME280;9752;54.270;12.470;2022-09-12T22:47:58;101123.75;;;14.06;100.00
19236;BME280;9752;54.270;12.470;2022-09-12T22:53:00;101113.47;;;14.10;100.00
19236;BME280;9752;54.270;12.470;2022-09-12T22:58:03;101100.09;;;14.03;100.00
19236;BME280;9752;54.270;12.470;2022-09-12T23:03:04;101090.63;;;14.05;100.00
19236;BME280;9752;54.270;12.470;2022-09-12T23:08:06;101082.69;;;14.02;100.00
19236;BME280;9752;54.270;12.470;2022-09-12T23:13:09;101083.66;;;14.04;100.00
19236;BME280;9752;54.270;12.470;2022-09-12T23:18:11;101073.22;;;14.04;100.00
19236;BME280;9752;54.270;12.470;2022-09-12T23:23:13;101058.38;;;14.03;100.00
19236;BME280;9752;54.270;12.470;2022-09-12T23:28:16;101043.31;;;13.98;100.00
19236;BME280;9752;54.270;12.470;2022-09-12T23:33:18;101038.44;;;13.88;100.00
19236;BME280;9752;54.270;12.470;2022-09-12T23:38:21;101027.47;;;13.77;100.00
19236;BME280;9752;54.270;12.470;2022-09-12T23:43:24;101023.09;;;13.76;100.00
19236;BME280;9752;54.270;12.470;2022-09-12T23:48:27;101023.59;;;13.69;100.00
19236;BME280;9752;54.270;12.470;2022-09-12T23:53:28;101017.97;;;13.61;100.00
19236;BME280;9752;54.270;12.470;2022-09-12T23:58:32;101011.34;;;13.67;100.00
